createdAt,value
2022-12-07T00:01:08.930Z,5.35
2022-12-07T00:03:37.199Z,5.70
2022-12-07T00:06:05.922Z,5.53
2022-12-07T00:08:34.355Z,5.45
2022-12-07T00:11:04.619Z,5.32
2022-12-07T00:13:32.846Z,6.03
2022-12-07T00:16:02.769Z,5.90
2022-12-07T00:18:31.124Z,5.43
2022-12-07T00:21:01.478Z,5.55
2022-12-07T00:23:29.309Z,5.47
2022-12-07T00:25:56.861Z,5.40
2022-12-07T00:28:25.758Z,5.13
2022-12-07T00:30:53.225Z,5.40
2022-12-07T00:33:21.215Z,5.97
2022-12-07T00:35:55.810Z,5.68
2022-12-07T00:38:24.165Z,5.90
2022-12-07T00:40:57.141Z,5.97
2022-12-07T00:43:26.859Z,6.10
2022-12-07T00:48:21.915Z,5.78
2022-12-07T00:50:49.592Z,6.57
2022-12-07T00:53:17.290Z,6.10
2022-12-07T00:55:45.789Z,5.90
2022-12-07T00:58:13.520Z,5.97
2022-12-07T01:00:43.756Z,6.60
2022-12-07T01:03:13.838Z,6.13
2022-12-07T01:05:41.753Z,5.63
2022-12-07T01:08:10.255Z,6.88
2022-12-07T01:10:38.176Z,7.57
2022-12-07T01:13:05.625Z,6.45
2022-12-07T01:15:33.138Z,6.18
2022-12-07T01:18:02.078Z,6.63
2022-12-07T01:20:29.585Z,6.68
2022-12-07T01:22:57.050Z,6.57
2022-12-07T01:25:25.304Z,7.50
2022-12-07T01:27:52.728Z,6.40
2022-12-07T01:30:20.312Z,6.47
2022-12-07T01:32:47.782Z,6.10
2022-12-07T01:35:16.832Z,6.25
2022-12-07T01:37:44.285Z,6.38
2022-12-07T01:40:12.717Z,6.05
2022-12-07T01:42:40.286Z,5.97
2022-12-07T01:45:42.275Z,6.45
2022-12-07T01:48:12.186Z,6.47
2022-12-07T01:50:42.964Z,6.03
2022-12-07T01:53:11.302Z,7.22
2022-12-07T01:55:43.309Z,6.07
2022-12-07T01:58:12.581Z,6.28
2022-12-07T02:00:42.037Z,7.03
2022-12-07T02:03:12.645Z,6.07
2022-12-07T02:05:44.017Z,6.60
2022-12-07T02:08:13.096Z,6.50
2022-12-07T02:10:41.135Z,6.57
2022-12-07T02:13:14.080Z,6.32
2022-12-07T02:16:05.711Z,6.20
2022-12-07T02:18:50.283Z,6.00
2022-12-07T02:21:29.272Z,7.20
2022-12-07T02:24:16.075Z,8.02
2022-12-07T02:27:02.805Z,6.03
2022-12-07T02:29:36.812Z,7.03
2022-12-07T02:32:09.909Z,6.18
2022-12-07T02:34:45.737Z,6.28
2022-12-07T02:37:23.326Z,6.78
2022-12-07T02:39:56.441Z,6.75
2022-12-07T02:42:30.121Z,6.60
2022-12-07T02:45:01.512Z,5.90
2022-12-07T02:47:30.924Z,6.28
2022-12-07T02:49:58.714Z,6.50
2022-12-07T02:52:26.477Z,6.93
2022-12-07T02:54:54.033Z,6.90
2022-12-07T02:57:38.334Z,6.32
2022-12-07T03:00:09.765Z,6.25
2022-12-07T03:02:47.866Z,7.25
2022-12-07T03:05:32.632Z,7.43
2022-12-07T03:08:06.173Z,7.97
2022-12-07T03:10:41.976Z,7.00
2022-12-07T03:13:13.729Z,7.25
2022-12-07T03:15:47.855Z,7.30
2022-12-07T03:18:20.427Z,6.78
2022-12-07T03:20:51.012Z,7.55
2022-12-07T03:23:20.499Z,6.85
2022-12-07T03:25:55.781Z,6.97
2022-12-07T03:28:32.917Z,6.30
2022-12-07T03:31:06.854Z,6.55
2022-12-07T03:33:41.549Z,6.22
2022-12-07T03:36:16.944Z,6.25
2022-12-07T03:38:49.567Z,7.72
2022-12-07T03:41:19.784Z,9.82
2022-12-07T03:43:47.560Z,10.57
2022-12-07T03:46:28.550Z,10.45
2022-12-07T03:49:00.755Z,12.18
2022-12-07T03:51:37.126Z,10.13
2022-12-07T03:54:12.441Z,10.63
2022-12-07T03:56:41.086Z,11.55
2022-12-07T03:59:09.249Z,11.98
2022-12-07T04:01:38.352Z,12.10
2022-12-07T04:04:05.944Z,11.65
2022-12-07T04:06:33.426Z,10.38
2022-12-07T04:09:01.048Z,12.30
2022-12-07T04:11:28.630Z,12.27
2022-12-07T04:13:56.189Z,11.10
2022-12-07T04:16:23.760Z,11.27
2022-12-07T04:18:52.716Z,11.85
2022-12-07T04:21:20.392Z,10.93
2022-12-07T04:23:47.872Z,12.05
2022-12-07T04:26:15.329Z,10.63
2022-12-07T04:28:43.008Z,9.00
2022-12-07T04:31:10.768Z,10.95
2022-12-07T04:33:38.491Z,12.73
2022-12-07T04:36:08.081Z,11.52
2022-12-07T04:41:06.474Z,11.65
2022-12-07T04:43:34.382Z,11.95
2022-12-07T04:46:02.240Z,11.35
2022-12-07T04:48:30.039Z,13.93
2022-12-07T04:50:57.564Z,12.95
2022-12-07T04:53:26.644Z,14.18
2022-12-07T04:55:54.060Z,13.80
2022-12-07T04:58:22.084Z,13.45
2022-12-07T05:00:49.756Z,12.82
2022-12-07T05:03:17.261Z,15.07
2022-12-07T05:05:45.508Z,15.55
2022-12-07T05:08:13.090Z,15.63
2022-12-07T05:10:42.248Z,16.00
2022-12-07T05:13:09.845Z,18.17
2022-12-07T05:15:37.259Z,17.17
2022-12-07T05:18:04.872Z,16.45
2022-12-07T05:20:33.781Z,17.30
2022-12-07T05:23:03.228Z,16.83
2022-12-07T05:25:30.901Z,15.15
2022-12-07T05:28:00.522Z,15.13
2022-12-07T05:32:55.706Z,15.90
2022-12-07T05:35:23.474Z,16.48
2022-12-07T05:37:51.093Z,16.30
2022-12-07T05:40:19.034Z,16.83
2022-12-07T05:42:46.703Z,17.83
2022-12-07T05:45:15.717Z,17.73
2022-12-07T05:47:43.754Z,17.13
2022-12-07T05:50:11.401Z,17.33
2022-12-07T05:52:38.859Z,17.33
2022-12-07T05:55:07.790Z,16.85
2022-12-07T05:57:35.441Z,16.98
2022-12-07T06:00:04.884Z,17.52
2022-12-07T06:02:41.399Z,17.55
2022-12-07T06:05:09.353Z,18.30
2022-12-07T06:07:36.890Z,17.85
2022-12-07T06:10:05.241Z,18.63
2022-12-07T06:12:32.802Z,17.45
2022-12-07T06:15:00.390Z,17.70
2022-12-07T06:17:28.140Z,18.27
2022-12-07T06:19:57.100Z,18.15
2022-12-07T06:22:25.654Z,17.52
2022-12-07T06:24:53.214Z,17.65
2022-12-07T06:27:21.108Z,17.95
2022-12-07T06:29:49.020Z,17.58
2022-12-07T06:32:16.686Z,19.17
2022-12-07T06:34:44.865Z,18.48
2022-12-07T06:37:14.143Z,17.73
2022-12-07T06:39:41.609Z,17.40
2022-12-07T06:42:09.055Z,18.52
2022-12-07T06:44:36.983Z,18.58
2022-12-07T06:47:39.082Z,18.90
2022-12-07T06:49:52.104Z,19.00
2022-12-07T06:52:21.053Z,19.45
2022-12-07T06:54:49.062Z,19.55
2022-12-07T06:57:16.559Z,18.73
2022-12-07T06:59:44.253Z,19.08
2022-12-07T07:02:12.208Z,21.13
2022-12-07T07:04:40.104Z,19.70
2022-12-07T07:07:07.756Z,19.13
2022-12-07T07:09:36.961Z,18.20
2022-12-07T07:12:04.991Z,18.77
2022-12-07T07:14:32.585Z,18.83
2022-12-07T07:17:00.575Z,19.02
2022-12-07T07:19:28.396Z,18.92
2022-12-07T07:21:55.990Z,20.27
2022-12-07T07:24:23.378Z,18.10
2022-12-07T07:26:52.258Z,18.85
2022-12-07T07:29:19.767Z,18.33
2022-12-07T07:31:47.340Z,19.02
2022-12-07T07:34:14.853Z,18.25
2022-12-07T07:36:42.372Z,17.67
2022-12-07T07:39:11.319Z,19.55
2022-12-07T07:41:38.786Z,19.38
2022-12-07T07:44:14.601Z,18.75
2022-12-07T07:46:42.672Z,19.05
2022-12-07T07:49:11.118Z,19.35
2022-12-07T07:51:38.797Z,19.92
2022-12-07T07:54:07.284Z,19.65
2022-12-07T07:56:34.710Z,19.55
2022-12-07T07:59:02.601Z,19.77
2022-12-07T08:01:32.220Z,18.95
2022-12-07T08:03:59.993Z,19.90
2022-12-07T08:06:31.968Z,18.42
2022-12-07T08:09:00.143Z,17.75
2022-12-07T08:11:27.870Z,17.88
2022-12-07T08:13:55.479Z,16.48
2022-12-07T08:16:23.179Z,18.13
2022-12-07T08:18:52.746Z,15.57
2022-12-07T08:21:21.487Z,17.60
2022-12-07T08:23:49.737Z,17.23
2022-12-07T08:26:18.949Z,16.00
2022-12-07T08:31:17.122Z,16.40
2022-12-07T08:33:46.904Z,17.70
2022-12-07T08:36:17.171Z,17.98
2022-12-07T08:41:32.700Z,16.25
2022-12-07T08:44:00.295Z,16.13
2022-12-07T08:46:32.439Z,18.38
2022-12-07T08:49:04.785Z,16.40
2022-12-07T08:51:33.928Z,17.27
2022-12-07T08:54:05.310Z,17.00
2022-12-07T08:56:33.083Z,15.60
2022-12-07T08:59:01.120Z,16.95
2022-12-07T09:01:29.781Z,15.95
2022-12-07T09:03:57.323Z,16.05
2022-12-07T09:06:25.138Z,14.90
2022-12-07T09:08:58.808Z,15.32
2022-12-07T09:11:28.902Z,15.82
2022-12-07T09:13:57.081Z,15.50
2022-12-07T09:16:24.860Z,15.25
2022-12-07T09:18:52.648Z,16.38
2022-12-07T09:21:20.216Z,15.20
2022-12-07T09:23:47.726Z,15.55
2022-12-07T09:26:17.044Z,15.32
2022-12-07T09:28:45.184Z,15.07
2022-12-07T09:31:28.227Z,15.60
2022-12-07T09:33:56.824Z,15.10
2022-12-07T09:36:24.588Z,15.90
2022-12-07T09:38:52.166Z,14.38
2022-12-07T09:41:22.193Z,15.32
2022-12-07T09:43:51.136Z,15.90
2022-12-07T09:46:20.599Z,16.00
2022-12-07T09:48:50.346Z,15.48
2022-12-07T09:51:23.688Z,14.57
2022-12-07T09:53:54.039Z,15.63
2022-12-07T09:56:25.061Z,16.23
2022-12-07T09:58:59.234Z,15.35
2022-12-07T10:01:29.959Z,15.20
2022-12-07T10:04:07.230Z,15.80
2022-12-07T10:06:45.502Z,14.40
2022-12-07T10:09:14.247Z,14.38
2022-12-07T10:12:04.285Z,15.87
2022-12-07T10:15:05.393Z,15.55
2022-12-07T10:17:37.587Z,15.20
2022-12-07T10:20:17.288Z,13.88
2022-12-07T10:25:29.543Z,14.52
2022-12-07T10:28:14.047Z,14.82
2022-12-07T10:30:58.437Z,15.77
2022-12-07T10:33:31.339Z,15.70
2022-12-07T10:35:59.366Z,15.60
2022-12-07T10:38:28.437Z,15.70
2022-12-07T10:41:06.093Z,16.95
2022-12-07T10:43:36.069Z,16.65
2022-12-07T10:46:37.059Z,15.82
2022-12-07T10:49:19.277Z,16.48
2022-12-07T10:51:55.085Z,15.45
2022-12-07T10:54:33.911Z,16.77
2022-12-07T10:57:30.068Z,15.23
2022-12-07T11:00:11.975Z,15.20
2022-12-07T11:03:04.342Z,15.75
2022-12-07T11:05:40.809Z,16.00
2022-12-07T11:08:18.401Z,16.38
2022-12-07T11:10:54.006Z,15.70
2022-12-07T11:13:30.300Z,15.55
2022-12-07T11:16:21.238Z,17.10
2022-12-07T11:18:58.809Z,16.58
2022-12-07T11:21:33.442Z,15.48
2022-12-07T11:24:11.276Z,14.05
2022-12-07T11:26:59.234Z,15.30
2022-12-07T11:29:47.012Z,15.00
2022-12-07T11:32:23.200Z,17.30
2022-12-07T11:35:00.654Z,15.90
2022-12-07T11:37:38.308Z,16.27
2022-12-07T11:40:20.141Z,15.68
2022-12-07T11:42:53.752Z,15.98
2022-12-07T11:45:27.310Z,16.15
2022-12-07T11:48:02.096Z,16.48
2022-12-07T11:50:39.132Z,17.23
2022-12-07T11:53:15.422Z,15.82
2022-12-07T11:55:48.573Z,15.98
2022-12-07T11:58:35.494Z,14.95
2022-12-07T12:01:15.300Z,15.98
2022-12-07T12:03:53.101Z,15.43
2022-12-07T12:06:22.264Z,16.75
2022-12-07T12:15:23.832Z,17.35
2022-12-07T12:18:06.481Z,14.48
2022-12-07T12:20:42.367Z,15.70
2022-12-07T12:23:14.641Z,14.23
2022-12-07T12:25:46.678Z,14.18
2022-12-07T12:28:24.898Z,14.27
2022-12-07T12:31:13.198Z,15.15
2022-12-07T12:33:46.404Z,14.25
2022-12-07T12:36:27.592Z,14.63
2022-12-07T12:39:13.037Z,14.73
2022-12-07T12:42:01.530Z,15.13
2022-12-07T12:45:03.501Z,17.30
2022-12-07T12:48:03.473Z,16.08
2022-12-07T12:50:33.196Z,16.08
2022-12-07T12:53:15.561Z,15.77
2022-12-07T12:56:26.450Z,14.85
2022-12-07T12:59:24.280Z,15.38
2022-12-07T13:01:53.483Z,14.77
2022-12-07T13:04:52.856Z,14.95
2022-12-07T13:07:54.132Z,15.82
2022-12-07T13:10:35.822Z,15.90
2022-12-07T13:13:25.836Z,14.55
2022-12-07T13:15:55.635Z,16.10
2022-12-07T13:18:36.346Z,15.55
2022-12-07T13:21:43.645Z,14.27
2022-12-07T13:24:14.282Z,14.48
2022-12-07T13:26:44.693Z,16.00
2022-12-07T13:29:14.732Z,14.32
2022-12-07T13:31:44.422Z,15.15
2022-12-07T13:36:59.855Z,15.23
2022-12-07T13:39:28.894Z,13.60
2022-12-07T13:41:59.090Z,12.88
2022-12-07T13:44:28.513Z,14.73
2022-12-07T13:47:06.940Z,14.93
2022-12-07T13:49:39.328Z,14.35
2022-12-07T13:52:17.125Z,14.13
2022-12-07T13:54:49.189Z,13.90
2022-12-07T13:57:18.809Z,13.57
2022-12-07T14:02:21.732Z,13.38
2022-12-07T14:04:51.441Z,15.52
2022-12-07T14:10:00.106Z,25.75
2022-12-07T14:12:31.232Z,13.75
2022-12-07T14:15:01.472Z,12.55
2022-12-07T14:17:29.884Z,12.90
2022-12-07T14:19:58.195Z,12.55
2022-12-07T14:22:31.596Z,12.18
2022-12-07T14:25:19.167Z,12.10
2022-12-07T14:27:56.377Z,9.95
2022-12-07T14:30:25.448Z,12.63
2022-12-07T14:32:56.414Z,11.82
2022-12-07T14:35:24.009Z,10.32
2022-12-07T14:37:52.051Z,11.05
2022-12-07T14:40:21.768Z,10.50
2022-12-07T14:42:55.001Z,11.57
2022-12-07T14:45:24.396Z,11.43
2022-12-07T14:53:38.264Z,11.50
2022-12-07T14:56:06.744Z,10.52
2022-12-07T14:58:34.564Z,10.63
2022-12-07T15:01:04.229Z,10.05
2022-12-07T15:03:32.426Z,10.63
2022-12-07T15:06:00.147Z,11.25
2022-12-07T15:08:28.024Z,9.32
2022-12-07T15:10:56.071Z,9.70
2022-12-07T15:13:23.961Z,9.73
2022-12-07T15:15:54.344Z,9.95
2022-12-07T15:18:25.180Z,9.95
2022-12-07T15:20:52.770Z,10.60
2022-12-07T15:23:20.731Z,9.50
2022-12-07T15:25:50.416Z,10.57
2022-12-07T15:28:17.936Z,10.07
2022-12-07T15:30:45.899Z,10.52
2022-12-07T15:33:14.719Z,10.30
2022-12-07T15:35:45.354Z,9.87
2022-12-07T15:38:13.732Z,9.77
2022-12-07T15:40:41.191Z,10.40
2022-12-07T15:43:10.596Z,10.23
2022-12-07T15:45:38.185Z,11.38
2022-12-07T15:51:02.206Z,11.00
2022-12-07T15:53:30.153Z,10.27
2022-12-07T15:55:57.792Z,10.90
2022-12-07T15:58:25.316Z,10.57
2022-12-07T16:00:53.525Z,9.65
2022-12-07T16:03:21.090Z,11.13
2022-12-07T16:05:50.472Z,10.23
2022-12-07T16:08:22.254Z,10.23
2022-12-07T16:10:49.957Z,10.07
2022-12-07T16:13:17.522Z,11.07
2022-12-07T16:15:45.204Z,9.80
2022-12-07T16:18:12.789Z,10.98
2022-12-07T16:20:40.869Z,9.73
2022-12-07T16:23:08.581Z,9.65
2022-12-07T16:25:37.501Z,10.80
2022-12-07T16:28:05.040Z,11.02
2022-12-07T16:30:32.652Z,10.38
2022-12-07T16:33:02.600Z,9.82
2022-12-07T16:35:30.807Z,10.35
2022-12-07T16:37:58.716Z,9.15
2022-12-07T16:40:26.282Z,10.23
2022-12-07T16:42:55.484Z,9.82
2022-12-07T16:45:23.944Z,9.38
2022-12-07T16:47:51.740Z,10.75
2022-12-07T16:50:19.341Z,9.38
2022-12-07T16:52:47.123Z,10.88
2022-12-07T16:55:14.797Z,10.02
2022-12-07T16:57:42.217Z,9.82
2022-12-07T17:00:12.900Z,9.35
2022-12-07T17:02:40.686Z,10.05
2022-12-07T17:05:09.761Z,9.43
2022-12-07T17:07:37.319Z,9.40
2022-12-07T17:10:06.113Z,8.32
2022-12-07T17:12:33.670Z,9.07
2022-12-07T17:15:01.503Z,8.23
2022-12-07T17:17:30.797Z,9.50
2022-12-07T17:19:58.325Z,9.18
2022-12-07T17:22:25.908Z,9.32
2022-12-07T17:24:53.524Z,9.50
2022-12-07T17:27:21.106Z,9.23
2022-12-07T17:29:48.640Z,8.98
2022-12-07T17:32:16.477Z,9.02
2022-12-07T17:34:45.446Z,8.10
2022-12-07T17:37:12.933Z,7.88
2022-12-07T17:39:40.614Z,8.05
2022-12-07T17:42:10.134Z,7.93
2022-12-07T17:44:37.624Z,9.20
2022-12-07T17:47:05.192Z,8.45
2022-12-07T17:49:33.014Z,8.13
2022-12-07T17:52:02.120Z,8.40
2022-12-07T17:54:30.284Z,9.30
2022-12-07T17:56:58.311Z,9.40
2022-12-07T17:59:26.390Z,8.07
2022-12-07T18:01:54.240Z,7.90
2022-12-07T18:04:22.808Z,8.48
2022-12-07T18:06:52.347Z,9.05
2022-12-07T18:09:22.245Z,7.45
2022-12-07T18:11:49.933Z,8.07
2022-12-07T18:14:17.855Z,7.53
2022-12-07T18:16:45.969Z,7.50
2022-12-07T18:19:13.745Z,7.55
2022-12-07T18:21:41.479Z,8.70
2022-12-07T18:24:11.306Z,7.72
2022-12-07T18:26:41.777Z,7.70
2022-12-07T18:29:11.072Z,7.85
2022-12-07T18:31:38.638Z,7.88
2022-12-07T18:34:08.433Z,7.97
2022-12-07T18:36:36.523Z,7.95
2022-12-07T18:39:05.024Z,7.60
2022-12-07T18:41:32.827Z,7.53
2022-12-07T18:44:04.858Z,7.30
2022-12-07T18:46:33.436Z,8.25
2022-12-07T18:49:01.297Z,7.93
2022-12-07T18:51:31.909Z,7.20
2022-12-07T18:54:00.123Z,7.35
2022-12-07T18:56:27.929Z,7.15
2022-12-07T18:58:57.324Z,7.13
2022-12-07T19:01:26.275Z,7.88
2022-12-07T19:03:53.747Z,7.70
2022-12-07T19:06:21.265Z,7.68
2022-12-07T19:08:48.856Z,7.82
2022-12-07T19:11:22.202Z,6.82
2022-12-07T19:13:51.362Z,7.20
2022-12-07T19:16:18.894Z,7.75
2022-12-07T19:18:51.167Z,8.18
2022-12-07T19:21:19.154Z,7.13
2022-12-07T19:23:46.980Z,7.70
2022-12-07T19:26:14.433Z,6.95
2022-12-07T19:28:42.207Z,7.63
2022-12-07T19:31:10.792Z,7.55
2022-12-07T19:33:38.674Z,7.30
2022-12-07T19:36:08.373Z,7.03
2022-12-07T19:38:35.834Z,6.68
2022-12-07T19:41:05.873Z,7.32
2022-12-07T19:43:33.649Z,6.70
2022-12-07T19:46:05.659Z,7.50
2022-12-07T19:48:33.846Z,7.28
2022-12-07T19:51:03.526Z,7.18
2022-12-07T19:56:01.080Z,7.20
2022-12-07T19:58:28.630Z,7.50
2022-12-07T20:00:56.230Z,7.00
2022-12-07T20:03:23.740Z,6.47
2022-12-07T20:05:51.227Z,6.63
2022-12-07T20:08:19.086Z,6.60
2022-12-07T20:10:48.102Z,7.28
2022-12-07T20:13:15.662Z,6.57
2022-12-07T20:15:43.173Z,6.68
2022-12-07T20:18:10.628Z,7.30
2022-12-07T20:20:38.096Z,6.88
2022-12-07T20:23:05.512Z,7.00
2022-12-07T20:25:36.125Z,6.47
2022-12-07T20:28:05.383Z,7.00
2022-12-07T20:30:32.893Z,6.03
2022-12-07T20:33:00.372Z,6.65
2022-12-07T20:35:28.169Z,7.13
2022-12-07T20:37:55.905Z,6.97
2022-12-07T20:40:23.557Z,7.38
2022-12-07T20:42:51.005Z,6.95
2022-12-07T20:45:19.941Z,6.50
2022-12-07T20:47:47.429Z,5.97
2022-12-07T20:50:14.905Z,6.50
2022-12-07T20:52:42.358Z,6.25
2022-12-07T20:55:10.176Z,6.05
2022-12-07T20:57:37.673Z,6.57
2022-12-07T21:00:07.056Z,5.93
2022-12-07T21:02:38.714Z,5.63
2022-12-07T21:05:07.252Z,5.75
2022-12-07T21:07:34.675Z,5.78
2022-12-07T21:10:02.130Z,5.90
2022-12-07T21:12:29.993Z,5.32
2022-12-07T21:14:57.454Z,6.05
2022-12-07T21:17:24.941Z,5.40
2022-12-07T21:19:53.829Z,5.25
2022-12-07T21:22:21.781Z,5.47
2022-12-07T21:24:49.241Z,5.38
2022-12-07T21:27:17.126Z,5.38
2022-12-07T21:29:46.967Z,5.35
2022-12-07T21:32:17.488Z,5.13
2022-12-07T21:34:45.001Z,5.68
2022-12-07T21:37:13.905Z,5.47
2022-12-07T21:39:41.354Z,4.80
2022-12-07T21:42:08.819Z,5.30
2022-12-07T21:44:36.409Z,5.32
2022-12-07T21:47:04.480Z,5.68
2022-12-07T21:49:32.115Z,5.20
2022-12-07T21:51:59.613Z,5.13
2022-12-07T21:54:28.604Z,5.18
2022-12-07T21:56:56.216Z,5.50
2022-12-07T21:59:23.708Z,5.22
2022-12-07T22:01:52.231Z,5.63
2022-12-07T22:04:22.402Z,5.55
2022-12-07T22:06:51.244Z,5.38
2022-12-07T22:09:20.145Z,5.57
2022-12-07T22:11:49.606Z,5.15
2022-12-07T22:14:17.139Z,5.57
2022-12-07T22:16:44.616Z,5.70
2022-12-07T22:19:12.162Z,5.22
2022-12-07T22:21:39.709Z,6.20
2022-12-07T22:24:07.865Z,6.00
2022-12-07T22:26:35.304Z,5.45
2022-12-07T22:29:04.387Z,5.78
2022-12-07T22:31:32.305Z,5.30
2022-12-07T22:33:59.889Z,5.47
2022-12-07T22:36:27.529Z,5.53
2022-12-07T22:38:55.051Z,5.45
2022-12-07T22:41:27.314Z,5.68
2022-12-07T22:43:55.704Z,5.82
2022-12-07T22:46:25.210Z,5.68
2022-12-07T22:48:53.412Z,5.95
2022-12-07T22:51:23.239Z,4.60
2022-12-07T22:53:52.000Z,5.45
2022-12-07T22:56:20.225Z,5.45
2022-12-07T22:58:48.481Z,6.07
2022-12-07T23:01:17.536Z,5.35
2022-12-07T23:03:47.231Z,5.05
2022-12-07T23:06:17.641Z,5.90
2022-12-07T23:08:45.997Z,5.18
2022-12-07T23:11:15.750Z,5.32
2022-12-07T23:13:43.240Z,4.90
2022-12-07T23:16:13.028Z,5.55
2022-12-07T23:18:41.838Z,6.03
2022-12-07T23:21:11.295Z,5.27
2022-12-07T23:23:38.822Z,5.93
2022-12-07T23:26:09.100Z,4.88
2022-12-07T23:28:37.917Z,5.45
2022-12-07T23:31:06.362Z,6.30
2022-12-07T23:33:34.381Z,6.35
2022-12-07T23:36:08.607Z,5.93
2022-12-07T23:38:38.170Z,5.68
2022-12-07T23:41:07.224Z,5.32
2022-12-07T23:43:36.263Z,5.82
2022-12-07T23:46:07.101Z,7.15
2022-12-07T23:48:36.314Z,5.20
2022-12-07T23:51:04.057Z,6.32
2022-12-07T23:53:34.266Z,5.80
2022-12-07T23:56:03.765Z,5.60
2022-12-07T23:58:31.281Z,6.10
